createdAt,value
2018-04-22T00:00:33.991Z,18.18
2018-04-22T00:03:01.266Z,18.14
2018-04-22T00:05:27.722Z,18.13
2018-04-22T00:07:54.124Z,18.11
2018-04-22T00:10:20.628Z,18.04
2018-04-22T00:12:47.767Z,18.00
2018-04-22T00:15:15.780Z,17.95
2018-04-22T00:17:42.521Z,17.93
2018-04-22T00:20:09.055Z,17.99
2018-04-22T00:22:35.473Z,18.02
2018-04-22T00:25:01.898Z,18.08
2018-04-22T00:27:29.082Z,18.04
2018-04-22T00:29:55.597Z,18.12
2018-04-22T00:32:21.998Z,18.08
2018-04-22T00:34:49.193Z,18.14
2018-04-22T00:37:15.602Z,18.07
2018-04-22T00:39:43.093Z,18.14
2018-04-22T00:42:09.710Z,18.07
2018-04-22T00:44:36.192Z,18.02
2018-04-22T00:47:02.615Z,17.84
2018-04-22T00:49:29.006Z,17.88
2018-04-22T00:51:55.445Z,18.00
2018-04-22T00:54:21.907Z,17.88
2018-04-22T00:56:48.396Z,17.77
2018-04-22T00:59:15.590Z,17.76
2018-04-22T01:01:42.046Z,17.68
2018-04-22T01:04:08.552Z,17.53
2018-04-22T01:06:35.055Z,17.47
2018-04-22T01:09:02.655Z,17.42
2018-04-22T01:11:29.142Z,17.31
2018-04-22T01:13:56.344Z,17.19
2018-04-22T01:16:22.812Z,17.13
2018-04-22T01:18:49.204Z,17.09
2018-04-22T01:21:15.583Z,17.06
2018-04-22T01:23:42.693Z,17.10
2018-04-22T01:26:09.088Z,17.05
2018-04-22T01:28:35.515Z,16.99
2018-04-22T01:31:02.609Z,16.96
2018-04-22T01:33:29.073Z,17.08
2018-04-22T01:35:56.230Z,16.99
2018-04-22T01:38:23.418Z,16.89
2018-04-22T01:40:49.831Z,16.86
2018-04-22T01:43:17.043Z,16.88
2018-04-22T01:45:43.573Z,16.88
2018-04-22T01:48:09.956Z,16.81
2018-04-22T01:50:37.105Z,16.80
2018-04-22T01:53:03.591Z,16.80
2018-04-22T01:55:30.379Z,16.94
2018-04-22T01:57:56.826Z,16.92
2018-04-22T02:00:23.336Z,16.91
2018-04-22T02:02:50.641Z,16.89
2018-04-22T02:05:17.325Z,16.79
2018-04-22T02:07:43.750Z,16.77
2018-04-22T02:10:10.249Z,16.72
2018-04-22T02:12:36.721Z,16.69
2018-04-22T02:15:03.972Z,16.67
2018-04-22T02:17:31.235Z,16.59
2018-04-22T02:19:58.394Z,16.46
2018-04-22T02:22:25.757Z,16.49
2018-04-22T02:24:52.199Z,16.43
2018-04-22T02:27:18.652Z,16.36
2018-04-22T02:29:45.052Z,16.33
2018-04-22T02:32:11.486Z,16.24
2018-04-22T02:34:37.899Z,16.17
2018-04-22T02:37:05.369Z,16.12
2018-04-22T02:39:32.110Z,16.12
2018-04-22T02:41:58.526Z,16.11
2018-04-22T02:44:25.813Z,16.13
2018-04-22T02:46:52.226Z,16.18
2018-04-22T02:49:18.752Z,16.19
2018-04-22T02:51:46.026Z,16.11
2018-04-22T02:54:12.549Z,16.05
2018-04-22T02:56:38.989Z,15.97
2018-04-22T02:59:05.396Z,15.94
2018-04-22T03:01:32.659Z,15.88
2018-04-22T03:03:59.822Z,15.85
2018-04-22T03:06:26.279Z,15.82
2018-04-22T03:08:52.671Z,15.77
2018-04-22T03:11:19.146Z,15.69
2018-04-22T03:13:45.517Z,15.68
2018-04-22T03:16:11.914Z,15.67
2018-04-22T03:18:38.429Z,15.59
2018-04-22T03:21:06.908Z,15.46
2018-04-22T03:23:34.828Z,15.35
2018-04-22T03:26:02.464Z,15.35
2018-04-22T03:28:28.861Z,15.33
2018-04-22T03:30:55.298Z,15.35
2018-04-22T03:33:21.714Z,15.34
2018-04-22T03:35:48.867Z,15.34
2018-04-22T03:38:16.002Z,15.34
2018-04-22T03:40:43.178Z,15.34
2018-04-22T03:43:09.571Z,15.32
2018-04-22T03:45:36.060Z,15.29
2018-04-22T03:48:02.499Z,15.33
2018-04-22T03:50:28.988Z,15.42
2018-04-22T03:52:56.088Z,15.51
2018-04-22T03:55:22.503Z,15.38
2018-04-22T03:57:48.924Z,15.32
2018-04-22T04:00:15.381Z,15.20
2018-04-22T04:02:41.801Z,15.18
2018-04-22T04:05:08.293Z,15.24
2018-04-22T04:07:35.583Z,15.13
2018-04-22T04:10:02.005Z,15.04
2018-04-22T04:12:28.451Z,15.00
2018-04-22T04:14:54.841Z,14.95
2018-04-22T04:17:21.992Z,14.94
2018-04-22T04:20:06.870Z,15.03
2018-04-22T04:22:45.069Z,14.98
2018-04-22T04:25:44.503Z,14.91
2018-04-22T04:28:10.953Z,14.93
2018-04-22T04:30:37.392Z,14.99
2018-04-22T04:33:03.999Z,15.00
2018-04-22T04:35:31.170Z,15.02
2018-04-22T04:37:57.533Z,15.05
2018-04-22T04:40:24.048Z,15.07
2018-04-22T04:42:50.566Z,15.12
2018-04-22T04:45:17.002Z,15.11
2018-04-22T04:47:43.528Z,15.14
2018-04-22T04:50:09.928Z,15.15
2018-04-22T04:52:36.350Z,15.23
2018-04-22T04:55:03.425Z,15.27
2018-04-22T04:57:30.576Z,15.32
2018-04-22T04:59:57.724Z,15.38
2018-04-22T05:02:25.202Z,15.42
2018-04-22T05:04:51.872Z,15.33
2018-04-22T05:07:18.232Z,15.44
2018-04-22T05:09:44.654Z,15.50
2018-04-22T05:12:11.071Z,15.57
2018-04-22T05:14:37.451Z,15.59
2018-04-22T05:17:04.594Z,15.64
2018-04-22T05:19:31.722Z,15.87
2018-04-22T05:21:58.216Z,15.84
2018-04-22T05:24:24.680Z,15.80
2018-04-22T05:26:51.074Z,15.98
2018-04-22T05:29:17.502Z,16.04
2018-04-22T05:31:43.931Z,16.05
2018-04-22T05:34:10.353Z,16.09
2018-04-22T05:36:37.552Z,16.25
2018-04-22T05:39:05.169Z,16.35
2018-04-22T05:41:32.015Z,16.37
2018-04-22T05:43:58.420Z,16.42
2018-04-22T05:46:25.908Z,16.75
2018-04-22T05:48:52.421Z,16.90
2018-04-22T05:51:19.583Z,17.01
2018-04-22T05:53:46.782Z,16.89
2018-04-22T05:56:13.198Z,16.98
2018-04-22T05:58:39.656Z,17.17
2018-04-22T06:01:06.452Z,17.32
2018-04-22T06:03:32.953Z,17.45
2018-04-22T06:06:00.105Z,17.32
2018-04-22T06:08:27.336Z,17.44
2018-04-22T06:10:53.848Z,17.60
2018-04-22T06:13:20.363Z,17.78
2018-04-22T06:15:46.836Z,17.60
2018-04-22T06:18:13.245Z,17.63
2018-04-22T06:20:39.760Z,17.69
2018-04-22T06:23:06.228Z,17.98
2018-04-22T06:25:32.668Z,18.20
2018-04-22T06:27:59.094Z,18.18
2018-04-22T06:30:25.567Z,17.92
2018-04-22T06:32:52.819Z,18.05
2018-04-22T06:35:20.084Z,18.45
2018-04-22T06:37:47.375Z,18.63
2018-04-22T06:40:13.822Z,18.73
2018-04-22T06:42:40.373Z,18.72
2018-04-22T06:45:06.851Z,18.74
2018-04-22T06:47:36.310Z,19.01
2018-04-22T06:50:02.734Z,19.13
2018-04-22T06:55:02.486Z,19.00
2018-04-22T06:57:28.995Z,19.08
2018-04-22T06:59:55.580Z,19.15
2018-04-22T07:02:23.155Z,19.12
2018-04-22T07:04:50.997Z,19.24
2018-04-22T07:07:17.447Z,19.31
2018-04-22T07:09:44.278Z,19.42
2018-04-22T07:12:10.793Z,19.73
2018-04-22T07:14:38.118Z,20.02
2018-04-22T07:17:04.565Z,20.08
2018-04-22T07:19:30.975Z,20.19
2018-04-22T07:21:58.226Z,20.41
2018-04-22T07:24:24.599Z,20.80
2018-04-22T07:26:51.843Z,21.08
2018-04-22T07:29:18.393Z,21.27
2018-04-22T07:31:45.743Z,21.61
2018-04-22T07:34:12.917Z,21.75
2018-04-22T07:36:39.392Z,21.82
2018-04-22T07:39:06.339Z,22.07
2018-04-22T07:41:33.109Z,22.06
2018-04-22T07:43:59.621Z,22.03
2018-04-22T07:46:26.408Z,22.55
2018-04-22T07:48:53.024Z,22.88
2018-04-22T07:51:19.457Z,22.77
2018-04-22T07:53:47.775Z,22.99
2018-04-22T07:56:14.325Z,23.01
2018-04-22T07:58:40.976Z,23.28
2018-04-22T08:01:07.741Z,23.52
2018-04-22T08:06:00.911Z,23.26
2018-04-22T08:08:27.547Z,23.32
2018-04-22T08:10:54.714Z,22.98
2018-04-22T08:13:21.871Z,23.02
2018-04-22T08:15:49.038Z,23.97
2018-04-22T08:18:15.465Z,24.25
2018-04-22T08:20:42.353Z,24.40
2018-04-22T08:23:09.032Z,24.33
2018-04-22T08:25:36.205Z,24.05
2018-04-22T08:28:02.866Z,24.41
2018-04-22T08:30:29.473Z,24.45
2018-04-22T08:32:56.145Z,23.91
2018-04-22T08:35:22.760Z,24.07
2018-04-22T08:37:49.333Z,24.30
2018-04-22T08:40:16.059Z,24.80
2018-04-22T08:42:44.150Z,24.76
2018-04-22T08:45:11.609Z,25.06
2018-04-22T08:47:40.282Z,25.30
2018-04-22T08:50:07.683Z,25.45
2018-04-22T08:52:35.926Z,25.78
2018-04-22T08:55:02.616Z,25.83
2018-04-22T08:57:29.786Z,25.58
2018-04-22T08:59:56.577Z,25.69
2018-04-22T09:02:23.826Z,25.69
2018-04-22T09:04:51.269Z,26.35
2018-04-22T09:07:18.475Z,26.74
2018-04-22T09:09:45.181Z,26.18
2018-04-22T09:12:12.323Z,26.06
2018-04-22T09:14:39.680Z,26.09
2018-04-22T09:17:07.371Z,26.06
2018-04-22T09:19:34.176Z,26.27
2018-04-22T09:22:00.845Z,26.65
2018-04-22T09:24:27.565Z,26.80
2018-04-22T09:26:54.739Z,26.82
2018-04-22T09:29:21.406Z,26.76
2018-04-22T09:31:47.851Z,26.98
2018-04-22T09:34:14.301Z,26.95
2018-04-22T09:36:40.702Z,27.14
2018-04-22T09:39:07.283Z,27.54
2018-04-22T09:41:33.904Z,27.89
2018-04-22T09:44:00.402Z,27.85
2018-04-22T09:46:27.012Z,27.42
2018-04-22T09:48:54.240Z,27.46
2018-04-22T09:51:21.593Z,27.51
2018-04-22T09:53:48.129Z,28.06
2018-04-22T09:56:14.761Z,28.38
2018-04-22T09:58:41.271Z,28.52
2018-04-22T10:03:40.902Z,28.41
2018-04-22T10:06:07.412Z,28.27
2018-04-22T10:08:34.140Z,28.64
2018-04-22T10:11:00.720Z,29.52
2018-04-22T10:13:27.168Z,29.16
2018-04-22T10:15:53.591Z,28.85
2018-04-22T10:18:20.026Z,29.23
2018-04-22T10:20:46.812Z,29.51
2018-04-22T10:23:13.269Z,29.55
2018-04-22T10:25:40.621Z,29.62
2018-04-22T10:28:07.097Z,29.73
2018-04-22T10:30:33.591Z,29.49
2018-04-22T10:33:00.338Z,29.22
2018-04-22T10:35:26.752Z,28.71
2018-04-22T10:37:53.186Z,28.96
2018-04-22T10:40:19.721Z,29.29
2018-04-22T10:42:46.154Z,29.55
2018-04-22T10:45:12.565Z,30.02
2018-04-22T10:47:40.133Z,29.93
2018-04-22T10:50:07.480Z,29.95
2018-04-22T10:52:34.630Z,30.35
2018-04-22T10:55:02.392Z,30.21
2018-04-22T10:57:29.651Z,30.00
2018-04-22T11:00:00.238Z,29.89
2018-04-22T11:02:27.972Z,30.03
2018-04-22T11:04:54.544Z,29.49
2018-04-22T11:07:21.998Z,28.92
2018-04-22T11:09:48.697Z,29.02
2018-04-22T11:12:15.448Z,29.37
2018-04-22T11:14:41.921Z,29.53
2018-04-22T11:17:08.458Z,30.00
2018-04-22T11:19:35.712Z,29.77
2018-04-22T11:22:02.198Z,29.88
2018-04-22T11:24:28.899Z,29.72
2018-04-22T11:26:56.340Z,29.68
2018-04-22T11:29:23.604Z,30.26
2018-04-22T11:31:50.779Z,30.20
2018-04-22T11:34:17.593Z,30.48
2018-04-22T11:36:44.871Z,30.77
2018-04-22T11:39:11.374Z,30.83
2018-04-22T11:41:37.952Z,30.50
2018-04-22T11:44:04.376Z,30.01
2018-04-22T11:46:31.203Z,30.21
2018-04-22T11:48:59.512Z,30.03
2018-04-22T11:51:26.131Z,29.60
2018-04-22T11:53:53.221Z,30.03
2018-04-22T11:56:19.758Z,30.58
2018-04-22T11:58:46.969Z,30.99
2018-04-22T12:01:13.427Z,31.18
2018-04-22T12:03:40.158Z,31.08
2018-04-22T12:06:06.869Z,31.20
2018-04-22T12:08:33.428Z,30.59
2018-04-22T12:10:59.868Z,30.01
2018-04-22T12:13:26.343Z,29.91
2018-04-22T12:15:52.838Z,30.37
2018-04-22T12:18:19.214Z,30.56
2018-04-22T12:20:45.606Z,30.35
2018-04-22T12:23:12.010Z,29.70
2018-04-22T12:25:38.594Z,29.48
2018-04-22T12:28:05.026Z,29.51
2018-04-22T12:30:31.472Z,29.18
2018-04-22T12:32:58.148Z,29.02
2018-04-22T12:35:25.604Z,29.56
2018-04-22T12:37:52.360Z,30.39
2018-04-22T12:40:18.823Z,30.88
2018-04-22T12:42:45.297Z,31.41
2018-04-22T12:45:12.438Z,31.90
2018-04-22T12:47:38.925Z,32.39
2018-04-22T12:50:05.358Z,32.38
2018-04-22T12:52:31.809Z,32.46
2018-04-22T12:54:58.311Z,32.23
2018-04-22T12:57:25.136Z,32.63
2018-04-22T12:59:52.420Z,32.48
2018-04-22T13:02:18.890Z,32.18
2018-04-22T13:04:45.283Z,31.33
2018-04-22T13:07:11.753Z,30.85
2018-04-22T13:09:38.278Z,30.88
2018-04-22T13:12:04.846Z,32.38
2018-04-22T13:14:32.053Z,33.88
2018-04-22T13:16:58.449Z,34.86
2018-04-22T13:19:24.943Z,34.61
2018-04-22T13:21:51.779Z,35.03
2018-04-22T13:24:18.310Z,35.16
2018-04-22T13:26:44.890Z,35.56
2018-04-22T13:29:12.245Z,35.20
2018-04-22T13:31:38.667Z,35.51
2018-04-22T13:34:05.125Z,34.53
2018-04-22T13:36:31.661Z,33.05
2018-04-22T13:38:58.896Z,33.50
2018-04-22T13:41:26.191Z,34.98
2018-04-22T13:43:52.638Z,34.14
2018-04-22T13:46:19.050Z,33.95
2018-04-22T13:48:45.866Z,33.92
2018-04-22T13:51:12.342Z,33.04
2018-04-22T13:53:38.978Z,32.78
2018-04-22T13:56:05.385Z,33.04
2018-04-22T13:58:31.759Z,31.85
2018-04-22T14:00:58.150Z,31.37
2018-04-22T14:03:24.582Z,31.39
2018-04-22T14:05:51.503Z,31.30
2018-04-22T14:08:18.617Z,31.04
2018-04-22T14:10:45.049Z,31.26
2018-04-22T14:13:11.527Z,33.46
2018-04-22T14:15:37.921Z,34.00
2018-04-22T14:18:04.271Z,35.27
2018-04-22T14:20:31.502Z,36.73
2018-04-22T14:22:57.939Z,37.07
2018-04-22T14:25:24.431Z,39.26
2018-04-22T14:27:51.017Z,39.73
2018-04-22T14:30:18.154Z,41.47
2018-04-22T14:32:44.642Z,43.16
2018-04-22T14:35:11.075Z,43.61
2018-04-22T14:37:37.550Z,43.57
2018-04-22T14:40:04.005Z,41.11
2018-04-22T14:42:31.236Z,40.50
2018-04-22T14:45:16.207Z,40.06
2018-04-22T14:47:42.637Z,38.96
2018-04-22T14:50:09.152Z,39.30
2018-04-22T14:52:38.473Z,37.53
2018-04-22T14:55:05.153Z,36.44
2018-04-22T14:57:31.548Z,36.76
2018-04-22T14:59:58.041Z,38.72
2018-04-22T15:02:24.826Z,38.36
2018-04-22T15:04:51.291Z,40.10
2018-04-22T15:07:17.722Z,41.33
2018-04-22T15:09:44.151Z,42.78
2018-04-22T15:12:11.432Z,44.13
2018-04-22T15:14:38.135Z,42.95
2018-04-22T15:17:05.252Z,41.36
2018-04-22T15:19:31.723Z,42.17
2018-04-22T15:21:58.048Z,42.18
2018-04-22T15:24:25.276Z,43.33
2018-04-22T15:26:51.733Z,44.41
2018-04-22T15:29:19.222Z,44.12
2018-04-22T15:31:45.680Z,44.31
2018-04-22T15:34:12.352Z,43.75
2018-04-22T15:36:39.508Z,42.48
2018-04-22T15:39:06.647Z,43.69
2018-04-22T15:41:33.076Z,43.05
2018-04-22T15:43:59.850Z,43.63
2018-04-22T15:46:26.397Z,43.45
2018-04-22T15:48:52.863Z,43.44
2018-04-22T15:51:19.419Z,43.06
2018-04-22T15:53:46.057Z,44.09
2018-04-22T15:56:12.665Z,42.31
2018-04-22T15:58:39.150Z,41.91
2018-04-22T16:01:06.418Z,41.92
2018-04-22T16:03:32.896Z,42.42
2018-04-22T16:06:01.260Z,42.73
2018-04-22T16:08:27.836Z,43.94
2018-04-22T16:10:55.047Z,44.69
2018-04-22T16:13:22.405Z,43.45
2018-04-22T16:15:48.900Z,40.49
2018-04-22T16:18:15.861Z,41.25
2018-04-22T16:20:42.294Z,42.04
2018-04-22T16:23:08.719Z,42.91
2018-04-22T16:25:35.350Z,43.45
2018-04-22T16:28:01.851Z,41.17
2018-04-22T16:30:28.398Z,39.42
2018-04-22T16:32:54.855Z,39.54
2018-04-22T16:35:21.605Z,40.73
2018-04-22T16:37:48.279Z,41.22
2018-04-22T16:40:14.929Z,40.69
2018-04-22T16:42:41.625Z,39.75
2018-04-22T16:45:08.534Z,38.69
2018-04-22T16:47:35.055Z,36.38
2018-04-22T16:50:01.703Z,35.17
2018-04-22T16:52:28.638Z,34.11
2018-04-22T16:54:55.238Z,34.20
2018-04-22T16:57:21.923Z,35.58
2018-04-22T16:59:50.099Z,35.06
2018-04-22T17:02:18.242Z,35.13
2018-04-22T17:04:44.886Z,35.18
2018-04-22T17:07:11.494Z,34.44
2018-04-22T17:09:38.901Z,32.99
2018-04-22T17:12:05.718Z,32.14
2018-04-22T17:14:32.876Z,32.09
2018-04-22T17:16:59.553Z,31.97
2018-04-22T17:19:26.155Z,31.39
2018-04-22T17:21:52.686Z,30.83
2018-04-22T17:24:19.251Z,30.26
2018-04-22T17:26:46.194Z,29.44
2018-04-22T17:29:13.356Z,29.09
2018-04-22T17:31:40.508Z,29.43
2018-04-22T17:34:06.943Z,29.54
2018-04-22T17:36:33.437Z,28.98
2018-04-22T17:39:00.736Z,28.79
2018-04-22T17:41:27.986Z,28.39
2018-04-22T17:43:54.528Z,28.71
2018-04-22T17:46:20.943Z,28.41
2018-04-22T17:48:48.169Z,28.01
2018-04-22T17:51:14.711Z,28.05
2018-04-22T17:53:42.042Z,27.81
2018-04-22T17:56:08.503Z,27.68
2018-04-22T17:58:35.650Z,27.80
2018-04-22T18:01:02.839Z,27.58
2018-04-22T18:03:29.293Z,27.23
2018-04-22T18:05:56.456Z,27.21
2018-04-22T18:08:23.449Z,27.05
2018-04-22T18:10:50.131Z,26.89
2018-04-22T18:13:16.916Z,26.81
2018-04-22T18:15:44.722Z,26.78
2018-04-22T18:18:11.180Z,26.67
2018-04-22T18:20:37.703Z,26.50
2018-04-22T18:23:04.456Z,26.25
2018-04-22T18:25:30.982Z,26.05
2018-04-22T18:27:57.388Z,25.82
2018-04-22T18:30:23.813Z,25.69
2018-04-22T18:32:50.202Z,25.44
2018-04-22T18:35:16.674Z,25.38
2018-04-22T18:37:43.165Z,25.39
2018-04-22T18:40:09.583Z,25.29
2018-04-22T18:42:36.059Z,25.24
2018-04-22T18:45:03.197Z,25.10
2018-04-22T18:47:30.429Z,25.07
2018-04-22T18:49:56.896Z,24.90
2018-04-22T18:52:24.102Z,24.87
2018-04-22T18:54:51.300Z,24.97
2018-04-22T18:57:18.623Z,24.77
2018-04-22T18:59:45.870Z,24.65
2018-04-22T19:02:12.237Z,24.65
2018-04-22T19:04:39.419Z,24.70
2018-04-22T19:07:06.031Z,24.69
2018-04-22T19:09:32.490Z,24.66
2018-04-22T19:11:59.141Z,24.53
2018-04-22T19:14:25.667Z,24.50
2018-04-22T19:16:52.075Z,24.50
2018-04-22T19:19:18.598Z,24.52
2018-04-22T19:21:45.784Z,24.33
2018-04-22T19:24:12.191Z,24.30
2018-04-22T19:26:38.627Z,24.13
2018-04-22T19:29:05.357Z,24.00
2018-04-22T19:31:31.777Z,23.90
2018-04-22T19:33:58.935Z,23.88
2018-04-22T19:36:26.081Z,23.68
2018-04-22T19:38:53.610Z,23.70
2018-04-22T19:41:20.316Z,23.76
2018-04-22T19:43:46.712Z,23.81
2018-04-22T19:46:14.146Z,23.78
2018-04-22T19:48:41.465Z,23.57
2018-04-22T19:51:07.856Z,23.53
2018-04-22T19:53:35.017Z,23.39
2018-04-22T19:56:01.469Z,23.28
2018-04-22T19:58:27.877Z,23.08
2018-04-22T20:00:54.293Z,23.03
2018-04-22T20:03:21.766Z,23.04
2018-04-22T20:05:48.402Z,22.80
2018-04-22T20:08:14.911Z,22.81
2018-04-22T20:10:42.489Z,22.65
2018-04-22T20:13:09.769Z,22.57
2018-04-22T20:15:36.248Z,22.48
2018-04-22T20:18:02.922Z,22.39
2018-04-22T20:20:29.659Z,22.30
2018-04-22T20:22:56.816Z,22.36
2018-04-22T20:25:24.216Z,22.25
2018-04-22T20:27:50.591Z,22.17
2018-04-22T20:30:17.736Z,22.13
2018-04-22T20:32:44.848Z,22.06
2018-04-22T20:35:11.316Z,22.06
2018-04-22T20:37:38.463Z,22.04
2018-04-22T20:40:05.562Z,21.91
2018-04-22T20:42:32.009Z,21.97
2018-04-22T20:44:58.349Z,21.96
2018-04-22T20:47:24.748Z,21.94
2018-04-22T20:49:51.351Z,21.88
2018-04-22T20:52:18.467Z,21.80
2018-04-22T20:54:44.984Z,21.73
2018-04-22T20:57:11.680Z,21.74
2018-04-22T20:59:38.835Z,22.14
2018-04-22T21:02:05.221Z,22.57
2018-04-22T21:04:31.626Z,22.68
2018-04-22T21:06:58.422Z,22.69
2018-04-22T21:09:25.669Z,22.67
2018-04-22T21:11:52.842Z,22.82
2018-04-22T21:14:19.358Z,22.73
2018-04-22T21:16:46.532Z,22.80
2018-04-22T21:19:13.196Z,22.89
2018-04-22T21:21:39.668Z,22.84
2018-04-22T21:24:06.035Z,22.97
2018-04-22T21:26:32.390Z,23.14
2018-04-22T21:28:58.799Z,23.00
2018-04-22T21:31:25.239Z,22.86
2018-04-22T21:33:51.746Z,22.75
2018-04-22T21:36:18.161Z,22.78
2018-04-22T21:38:44.610Z,22.65
2018-04-22T21:41:11.760Z,22.61
2018-04-22T21:43:38.899Z,22.61
2018-04-22T21:46:06.056Z,22.59
2018-04-22T21:48:32.879Z,22.52
2018-04-22T21:50:59.403Z,22.37
2018-04-22T21:53:25.857Z,22.32
2018-04-22T21:55:52.313Z,22.29
2018-04-22T21:58:19.461Z,22.29
2018-04-22T22:00:46.825Z,22.25
2018-04-22T22:03:13.199Z,22.17
2018-04-22T22:05:39.670Z,22.08
2018-04-22T22:08:06.810Z,22.04
2018-04-22T22:10:33.240Z,21.98
2018-04-22T22:12:59.911Z,21.92
2018-04-22T22:15:26.329Z,21.88
2018-04-22T22:17:53.410Z,21.88
2018-04-22T22:20:20.003Z,21.83
2018-04-22T22:22:47.127Z,21.77
2018-04-22T22:25:13.599Z,21.72
2018-04-22T22:27:41.895Z,21.72
2018-04-22T22:30:08.298Z,21.72
2018-04-22T22:32:35.433Z,21.81
2018-04-22T22:35:01.887Z,21.80
2018-04-22T22:37:29.061Z,21.85
2018-04-22T22:39:55.485Z,21.87
2018-04-22T22:42:22.020Z,21.96
2018-04-22T22:44:48.764Z,21.78
2018-04-22T22:47:15.397Z,21.70
2018-04-22T22:49:41.799Z,21.65
2018-04-22T22:52:08.164Z,21.60
2018-04-22T22:54:34.632Z,21.69
2018-04-22T22:57:01.020Z,21.63
2018-04-22T22:59:28.162Z,21.70
2018-04-22T23:01:55.543Z,21.69
2018-04-22T23:04:21.969Z,21.73
2018-04-22T23:06:48.360Z,21.72
2018-04-22T23:09:14.738Z,21.75
2018-04-22T23:11:41.131Z,21.71
2018-04-22T23:14:08.514Z,21.70
2018-04-22T23:16:34.890Z,21.67
2018-04-22T23:19:01.278Z,21.68
2018-04-22T23:21:27.757Z,21.65
2018-04-22T23:23:54.128Z,21.71
2018-04-22T23:26:21.205Z,21.62
2018-04-22T23:28:47.593Z,21.58
2018-04-22T23:31:13.965Z,21.50
2018-04-22T23:33:40.338Z,21.51
2018-04-22T23:36:06.752Z,21.50
2018-04-22T23:38:33.114Z,21.50
2018-04-22T23:40:59.630Z,21.50
2018-04-22T23:43:26.325Z,21.65
2018-04-22T23:45:52.760Z,21.70
2018-04-22T23:48:19.999Z,21.80
2018-04-22T23:50:47.364Z,21.65
2018-04-22T23:53:13.767Z,21.70
2018-04-22T23:55:40.166Z,21.76
2018-04-22T23:58:06.689Z,21.81
